createdAt,value
2019-02-14T00:01:09.022Z,2.10
2019-02-14T00:06:14.382Z,1.70
2019-02-14T00:11:19.640Z,2.30
2019-02-14T00:16:24.987Z,1.90
2019-02-14T00:21:30.375Z,1.60
2019-02-14T00:26:35.691Z,1.90
2019-02-14T00:31:40.970Z,1.73
2019-02-14T00:36:46.195Z,2.10
2019-02-14T00:41:51.575Z,1.82
2019-02-14T00:46:56.680Z,1.70
2019-02-14T00:52:02.032Z,2.43
2019-02-14T00:57:07.295Z,1.60
2019-02-14T01:02:12.766Z,1.93
2019-02-14T01:07:17.960Z,1.67
2019-02-14T01:12:23.238Z,1.57
2019-02-14T01:17:28.521Z,1.83
2019-02-14T01:22:34.275Z,1.50
2019-02-14T01:27:39.598Z,2.33
2019-02-14T01:32:44.920Z,2.20
2019-02-14T01:37:50.147Z,2.33
2019-02-14T01:42:55.482Z,2.53
2019-02-14T01:48:00.737Z,2.40
2019-02-14T01:53:06.138Z,2.20
2019-02-14T01:58:11.570Z,2.37
2019-02-14T02:03:16.975Z,2.53
2019-02-14T02:08:22.962Z,3.05
2019-02-14T02:13:28.364Z,2.65
2019-02-14T02:18:33.860Z,2.77
2019-02-14T02:23:39.125Z,2.43
2019-02-14T02:28:44.295Z,2.73
2019-02-14T02:33:49.620Z,2.73
2019-02-14T02:38:54.870Z,3.03
2019-02-14T02:44:00.187Z,3.63
2019-02-14T02:49:05.662Z,3.07
2019-02-14T02:54:10.865Z,3.47
2019-02-14T02:59:16.039Z,3.60
2019-02-14T03:04:21.317Z,3.00
2019-02-14T03:09:26.599Z,3.77
2019-02-14T03:14:31.904Z,2.90
2019-02-14T03:19:37.219Z,4.20
2019-02-14T03:24:42.503Z,3.20
2019-02-14T03:29:47.735Z,4.20
2019-02-14T03:34:52.882Z,3.50
2019-02-14T03:39:58.060Z,3.90
2019-02-14T03:45:03.270Z,3.33
2019-02-14T03:50:08.960Z,4.10
2019-02-14T03:55:14.098Z,3.77
2019-02-14T04:00:19.599Z,4.20
2019-02-14T04:05:24.824Z,4.03
2019-02-14T04:10:30.185Z,4.17
2019-02-14T04:15:35.442Z,4.25
2019-02-14T04:20:40.675Z,4.40
2019-02-14T04:25:45.899Z,4.43
2019-02-14T04:30:51.179Z,4.20
2019-02-14T04:35:56.417Z,4.50
2019-02-14T04:41:01.614Z,5.30
2019-02-14T04:46:06.751Z,4.27
2019-02-14T04:51:12.127Z,4.77
2019-02-14T04:56:17.340Z,4.47
2019-02-14T05:01:23.215Z,4.40
2019-02-14T05:06:28.446Z,5.20
2019-02-14T05:11:33.729Z,5.40
2019-02-14T05:16:39.078Z,5.27
2019-02-14T05:21:44.329Z,5.30
2019-02-14T05:26:49.519Z,6.30
2019-02-14T05:31:54.940Z,6.10
2019-02-14T05:37:00.125Z,5.70
2019-02-14T05:42:05.332Z,5.73
2019-02-14T05:47:10.598Z,5.83
2019-02-14T05:52:15.947Z,5.90
2019-02-14T05:57:21.257Z,6.07
2019-02-14T06:02:26.566Z,5.97
2019-02-14T06:07:31.807Z,5.92
2019-02-14T06:12:37.035Z,6.15
2019-02-14T06:17:42.219Z,5.70
2019-02-14T06:22:47.554Z,5.00
2019-02-14T06:27:52.680Z,5.78
2019-02-14T06:32:57.970Z,5.50
2019-02-14T06:38:03.156Z,5.33
2019-02-14T06:43:08.381Z,5.58
2019-02-14T06:48:13.819Z,4.70
2019-02-14T06:53:19.058Z,6.60
2019-02-14T06:58:24.336Z,6.60
2019-02-14T07:03:29.539Z,7.00
2019-02-14T07:08:34.814Z,6.97
2019-02-14T07:13:40.019Z,6.80
2019-02-14T07:18:45.195Z,6.77
2019-02-14T07:23:50.529Z,7.10
2019-02-14T07:28:55.755Z,7.43
2019-02-14T07:34:01.015Z,8.60
2019-02-14T07:39:08.254Z,9.10
2019-02-14T07:44:16.439Z,8.60
2019-02-14T07:49:21.624Z,9.70
2019-02-14T07:54:26.910Z,10.47
2019-02-14T07:59:32.199Z,10.87
2019-02-14T08:04:37.400Z,15.08
2019-02-14T08:09:42.589Z,12.20
2019-02-14T08:14:47.945Z,13.57
2019-02-14T08:19:53.330Z,13.40
2019-02-14T08:24:58.658Z,12.60
2019-02-14T08:30:04.029Z,11.67
2019-02-14T08:35:10.385Z,12.23
2019-02-14T08:40:19.476Z,13.35
2019-02-14T08:45:24.789Z,9.90
2019-02-14T08:50:30.044Z,11.87
2019-02-14T08:55:35.440Z,9.13
2019-02-14T09:00:40.689Z,11.17
2019-02-14T09:05:46.053Z,10.33
2019-02-14T09:10:51.193Z,9.70
2019-02-14T09:15:56.619Z,11.00
2019-02-14T09:21:01.960Z,11.90
2019-02-14T09:26:07.246Z,10.97
2019-02-14T09:31:12.457Z,10.50
2019-02-14T09:36:17.754Z,8.97
2019-02-14T09:41:24.574Z,9.98
2019-02-14T09:46:29.926Z,9.55
2019-02-14T09:51:35.129Z,7.67
2019-02-14T09:56:40.434Z,8.10
2019-02-14T10:01:45.568Z,9.53
2019-02-14T10:06:50.849Z,11.33
2019-02-14T10:11:56.151Z,9.93
2019-02-14T10:17:01.456Z,11.67
2019-02-14T10:22:06.870Z,9.90
2019-02-14T10:27:12.162Z,9.10
2019-02-14T10:32:17.325Z,8.20
2019-02-14T10:37:22.649Z,7.90
2019-02-14T10:42:27.879Z,9.63
2019-02-14T10:47:33.201Z,8.80
2019-02-14T10:52:38.351Z,9.73
2019-02-14T10:57:43.578Z,8.80
2019-02-14T11:02:50.001Z,9.63
2019-02-14T11:07:55.180Z,10.53
2019-02-14T11:13:00.399Z,9.87
2019-02-14T11:18:05.808Z,9.60
2019-02-14T11:23:11.164Z,11.70
2019-02-14T11:28:16.448Z,11.67
2019-02-14T11:33:21.630Z,11.63
2019-02-14T11:38:26.884Z,11.83
2019-02-14T11:43:32.526Z,11.12
2019-02-14T11:48:37.799Z,10.70
2019-02-14T11:53:43.095Z,11.37
2019-02-14T11:58:48.479Z,9.07
2019-02-14T12:03:53.751Z,9.30
2019-02-14T12:09:00.478Z,11.10
2019-02-14T12:14:06.039Z,11.67
2019-02-14T12:19:11.343Z,9.30
2019-02-14T12:24:16.604Z,9.20
2019-02-14T12:29:21.794Z,11.73
2019-02-14T12:34:27.214Z,10.77
2019-02-14T12:39:32.391Z,11.40
2019-02-14T12:44:37.886Z,10.40
2019-02-14T12:49:43.082Z,11.10
2019-02-14T12:54:48.317Z,11.57
2019-02-14T12:59:54.936Z,11.10
2019-02-14T13:05:00.216Z,12.20
2019-02-14T13:10:05.889Z,11.00
2019-02-14T13:15:14.077Z,9.90
2019-02-14T13:20:19.280Z,11.93
2019-02-14T13:25:24.486Z,12.10
2019-02-14T13:30:29.632Z,11.80
2019-02-14T13:35:34.854Z,11.67
2019-02-14T13:40:40.066Z,11.87
2019-02-14T13:45:45.279Z,10.83
2019-02-14T13:50:50.494Z,11.00
2019-02-14T13:55:55.760Z,9.93
2019-02-14T14:01:00.971Z,11.43
2019-02-14T14:06:10.802Z,11.90
2019-02-14T14:11:15.951Z,12.53
2019-02-14T14:16:21.270Z,8.67
2019-02-14T14:21:26.741Z,9.97
2019-02-14T14:26:32.012Z,10.40
2019-02-14T14:31:37.199Z,10.50
2019-02-14T14:36:42.580Z,12.00
2019-02-14T14:41:47.832Z,9.83
2019-02-14T14:46:57.551Z,9.60
2019-02-14T14:52:02.874Z,10.20
2019-02-14T14:57:08.315Z,10.20
2019-02-14T15:02:13.506Z,9.10
2019-02-14T15:07:18.889Z,10.37
2019-02-14T15:12:25.794Z,9.73
2019-02-14T15:17:33.437Z,10.05
2019-02-14T15:22:38.636Z,9.80
2019-02-14T15:27:43.905Z,11.03
2019-02-14T15:32:49.345Z,9.73
2019-02-14T15:37:54.700Z,11.17
2019-02-14T15:42:59.939Z,8.40
2019-02-14T15:48:05.364Z,10.57
2019-02-14T15:53:10.648Z,10.37
2019-02-14T15:58:16.200Z,10.70
2019-02-14T16:03:21.442Z,11.97
2019-02-14T16:08:26.646Z,14.40
2019-02-14T16:13:33.683Z,13.72
2019-02-14T16:18:39.066Z,12.78
2019-02-14T16:23:44.670Z,13.20
2019-02-14T16:28:49.864Z,13.73
2019-02-14T16:33:55.060Z,14.87
2019-02-14T16:39:01.425Z,14.10
2019-02-14T16:44:06.834Z,15.63
2019-02-14T16:49:12.185Z,15.33
2019-02-14T16:54:17.491Z,14.87
2019-02-14T16:59:22.754Z,13.00
2019-02-14T17:04:30.495Z,11.93
2019-02-14T17:09:35.735Z,12.15
2019-02-14T17:14:41.010Z,11.60
2019-02-14T17:19:46.385Z,13.40
2019-02-14T17:24:53.026Z,12.07
2019-02-14T17:29:58.201Z,12.87
2019-02-14T17:35:03.579Z,10.97
2019-02-14T17:40:09.541Z,13.27
2019-02-14T17:45:15.579Z,11.77
2019-02-14T17:50:20.797Z,11.90
2019-02-14T17:55:28.308Z,12.50
2019-02-14T18:00:33.495Z,13.30
2019-02-14T18:05:38.911Z,11.88
2019-02-14T18:10:44.301Z,11.78
2019-02-14T18:15:49.554Z,12.33
2019-02-14T18:20:54.832Z,12.67
2019-02-14T18:26:00.105Z,12.33
2019-02-14T18:31:05.494Z,12.77
2019-02-14T18:36:13.906Z,12.50
2019-02-14T18:41:22.147Z,10.23
2019-02-14T18:46:27.310Z,11.90
2019-02-14T18:51:32.715Z,12.63
2019-02-14T18:56:37.906Z,12.07
2019-02-14T19:01:43.129Z,11.77
2019-02-14T19:06:48.315Z,12.20
2019-02-14T19:11:53.535Z,11.53
2019-02-14T19:16:58.954Z,11.27
2019-02-14T19:22:04.192Z,11.30
2019-02-14T19:27:09.414Z,11.80
2019-02-14T19:32:14.828Z,13.10
2019-02-14T19:37:20.129Z,12.67
2019-02-14T19:42:25.364Z,14.37
2019-02-14T19:47:30.631Z,14.17
2019-02-14T19:52:36.077Z,13.87
2019-02-14T19:57:42.552Z,16.20
2019-02-14T20:02:47.834Z,16.20
2019-02-14T20:07:53.038Z,17.90
2019-02-14T20:12:58.360Z,16.90
2019-02-14T20:18:03.741Z,18.63
2019-02-14T20:23:09.099Z,19.20
2019-02-14T20:28:14.594Z,21.47
2019-02-14T20:33:19.995Z,20.80
2019-02-14T20:38:26.214Z,18.67
2019-02-14T20:43:31.545Z,21.30
2019-02-14T20:48:36.695Z,18.12
2019-02-14T20:53:42.254Z,18.62
2019-02-14T20:58:47.574Z,19.57
2019-02-14T21:03:52.989Z,18.53
2019-02-14T21:08:59.204Z,15.13
2019-02-14T21:14:04.467Z,18.57
2019-02-14T21:19:09.669Z,19.43
2019-02-14T21:24:15.276Z,18.80
2019-02-14T21:29:20.501Z,17.93
2019-02-14T21:34:25.879Z,17.93
2019-02-14T21:39:31.175Z,14.70
2019-02-14T21:44:36.587Z,17.00
2019-02-14T21:49:41.822Z,17.00
2019-02-14T21:54:47.275Z,18.27
2019-02-14T21:59:52.380Z,18.90
2019-02-14T22:04:57.527Z,16.47
2019-02-14T22:10:02.681Z,20.70
2019-02-14T22:15:10.245Z,19.60
2019-02-14T22:20:15.483Z,21.87
2019-02-14T22:25:20.721Z,21.50
2019-02-14T22:30:26.129Z,24.27
2019-02-14T22:35:31.410Z,22.27
2019-02-14T22:40:36.683Z,25.68
2019-02-14T22:45:42.040Z,24.43
2019-02-14T22:50:47.315Z,25.43
2019-02-14T22:55:53.144Z,24.67
2019-02-14T23:01:00.771Z,23.90
2019-02-14T23:06:06.035Z,25.13
2019-02-14T23:11:11.230Z,27.00
2019-02-14T23:16:16.610Z,27.77
2019-02-14T23:21:21.775Z,23.40
2019-02-14T23:26:27.075Z,25.83
2019-02-14T23:31:32.341Z,25.35
2019-02-14T23:36:37.531Z,23.73
2019-02-14T23:41:42.683Z,25.37
2019-02-14T23:46:47.894Z,23.73
2019-02-14T23:51:53.348Z,23.40
2019-02-14T23:56:59.803Z,20.93
